Time;durP1;ratioP1;P1;durP2;ratioP2;P2;SDS_P1;SDS_P2;PMS_P1;PMS_P2;Temp;Humidity;BMP_temperature;BMP_pressure;BME280_temperature;BME280_humidity;BME280_pressure;Samples;Min_cycle;Max_cycle;Signal;HPM_P1;HPM_P2
2022/03/13 00:02:21;;;;;;;13.23;6.27;;;;;2.30;96430.00;;;;8400460;28;20235;-69
2022/03/13 00:06:35;;;;;;;12.20;6.10;;;;;2.20;96428.00;;;;8393698;28;20235;-69
2022/03/13 00:10:38;;;;;;;12.23;6.30;;;;;2.20;96437.00;;;;8394268;28;20288;-72
2022/03/13 00:14:43;;;;;;;11.73;5.87;;;;;2.10;96427.00;;;;8406491;28;20273;-69
2022/03/13 00:18:47;;;;;;;10.90;5.80;;;;;2.00;96427.00;;;;8397120;28;20710;-69
2022/03/13 00:22:50;;;;;;;10.63;6.00;;;;;2.00;96417.00;;;;8392578;28;20228;-68
2022/03/13 00:26:54;;;;;;;13.50;5.83;;;;;1.80;96419.00;;;;8393228;28;20227;-67
2022/03/13 00:30:59;;;;;;;12.97;6.63;;;;;1.80;96411.00;;;;8405045;28;20224;-68
2022/03/13 00:35:02;;;;;;;9.97;5.43;;;;;1.70;96412.00;;;;8402887;28;20664;-68
2022/03/13 00:39:05;;;;;;;12.23;5.53;;;;;1.70;96410.00;;;;8404497;28;20215;-68
2022/03/13 00:43:08;;;;;;;17.37;6.27;;;;;1.60;96412.00;;;;8418129;28;20226;-68
2022/03/13 00:47:12;;;;;;;12.43;6.30;;;;;1.60;96412.00;;;;8404435;28;20611;-69
2022/03/13 00:51:15;;;;;;;11.70;6.47;;;;;1.60;96401.00;;;;8417254;28;20268;-68
2022/03/13 00:55:18;;;;;;;12.17;6.03;;;;;1.50;96398.00;;;;8418841;28;20257;-68
2022/03/13 00:59:22;;;;;;;12.20;6.17;;;;;1.50;96409.00;;;;8417377;28;20219;-68
2022/03/13 01:03:49;;;;;;;13.17;5.73;;;;;1.50;96393.00;;;;8415609;28;20280;-68
2022/03/13 01:07:53;;;;;;;14.00;5.83;;;;;1.40;96403.00;;;;8417673;28;20223;-68
2022/03/13 01:11:56;;;;;;;16.17;5.80;;;;;1.40;96386.00;;;;8417192;28;20223;-68
2022/03/13 01:16:10;;;;;;;15.80;6.63;;;;;1.30;96383.00;;;;8417284;28;20235;-68
2022/03/13 01:20:17;;;;;;;15.53;6.27;;;;;1.30;96384.00;;;;8416695;28;20256;-68
2022/03/13 01:24:28;;;;;;;12.90;6.13;;;;;1.20;96383.00;;;;8417251;28;20227;-69
2022/03/13 01:28:31;;;;;;;13.33;5.77;;;;;1.20;96379.00;;;;8406053;28;20312;-69
2022/03/13 01:32:34;;;;;;;12.43;6.00;;;;;1.10;96375.00;;;;8415239;28;20232;-71
2022/03/13 01:36:39;;;;;;;13.63;6.33;;;;;1.00;96375.00;;;;8414929;28;20223;-70
2022/03/13 01:40:42;;;;;;;12.03;5.57;;;;;0.90;96376.00;;;;8411542;28;20276;-70
2022/03/13 01:44:45;;;;;;;14.33;5.87;;;;;0.90;96370.00;;;;8409418;28;20634;-69
2022/03/13 01:48:57;;;;;;;14.87;6.07;;;;;0.80;96374.00;;;;8416273;28;20296;-69
2022/03/13 01:53:01;;;;;;;19.03;6.70;;;;;0.80;96365.00;;;;8417069;28;20223;-70
2022/03/13 01:57:04;;;;;;;16.57;6.93;;;;;0.80;96373.00;;;;8415923;28;20226;-69
2022/03/13 02:01:08;;;;;;;12.77;6.00;;;;;0.80;96355.00;;;;8418224;28;20227;-70
2022/03/13 02:05:26;;;;;;;17.53;5.17;;;;;0.70;96351.00;;;;8410300;28;20295;-70
2022/03/13 02:09:30;;;;;;;14.83;5.87;;;;;0.70;96347.00;;;;8414459;28;20339;-70
2022/03/13 02:13:34;;;;;;;11.63;6.17;;;;;0.70;96344.00;;;;8415407;28;20498;-69
2022/03/13 02:17:37;;;;;;;12.17;5.17;;;;;0.60;96334.00;;;;8418007;28;20785;-69
2022/03/13 02:21:44;;;;;;;9.60;5.40;;;;;0.50;96332.00;;;;8416365;28;20231;-70
2022/03/13 02:25:51;;;;;;;10.87;5.77;;;;;0.50;96325.00;;;;8416115;28;20699;-71
2022/03/13 02:29:54;;;;;;;7.23;4.00;;;;;0.50;96335.00;;;;8408322;28;20227;-70
2022/03/13 02:33:58;;;;;;;18.73;6.50;;;;;0.40;96326.00;;;;8415875;28;20634;-71
2022/03/13 02:38:01;;;;;;;10.60;5.93;;;;;0.40;96321.00;;;;8415839;28;20292;-71
2022/03/13 02:42:08;;;;;;;10.57;5.80;;;;;0.40;96323.00;;;;8414551;28;20227;-72
2022/03/13 02:46:20;;;;;;;10.97;5.03;;;;;0.30;96316.00;;;;8415368;28;20231;-72
2022/03/13 02:50:23;;;;;;;13.07;5.83;;;;;0.30;96326.00;;;;8415982;28;20227;-72
2022/03/13 02:54:27;;;;;;;15.30;6.77;;;;;0.20;96324.00;;;;8414089;28;20292;-73
2022/03/13 02:58:31;;;;;;;13.30;6.57;;;;;0.20;96334.00;;;;8414304;28;20772;-73
2022/03/13 03:02:34;;;;;;;14.03;6.30;;;;;0.10;96334.00;;;;8432291;22;20219;-74
2022/03/13 03:06:39;;;;;;;11.53;5.87;;;;;0.00;96339.00;;;;8426085;28;20226;-72
2022/03/13 03:10:43;;;;;;;13.57;6.47;;;;;0.00;96344.00;;;;8416171;28;20239;-71
2022/03/13 03:14:47;;;;;;;18.07;6.63;;;;;-0.10;96347.00;;;;8402485;28;20216;-71
2022/03/13 03:18:50;;;;;;;11.53;5.57;;;;;-0.20;96346.00;;;;8409542;28;20227;-72
2022/03/13 03:22:54;;;;;;;12.17;5.97;;;;;-0.30;96351.00;;;;8424207;28;20974;-72
2022/03/13 03:26:58;;;;;;;12.97;6.30;;;;;-0.30;96351.00;;;;8425497;28;20276;-73
2022/03/13 03:31:03;;;;;;;12.50;6.60;;;;;-0.40;96361.00;;;;8404593;28;20223;-73
2022/03/13 03:35:07;;;;;;;13.33;6.10;;;;;-0.50;96361.00;;;;8412951;28;20227;-74
2022/03/13 03:39:11;;;;;;;13.37;6.47;;;;;-0.50;96364.00;;;;8415356;28;20280;-74
2022/03/13 03:43:14;;;;;;;11.37;6.00;;;;;-0.60;96358.00;;;;8422994;28;20222;-74
2022/03/13 03:47:19;;;;;;;13.37;5.90;;;;;-0.60;96357.00;;;;8421118;28;20800;-76
2022/03/13 03:51:22;;;;;;;8.43;4.93;;;;;-0.60;96354.00;;;;8428872;28;20234;-76
2022/03/13 03:55:26;;;;;;;14.70;6.00;;;;;-0.60;96361.00;;;;8430894;28;20268;-75
2022/03/13 03:59:29;;;;;;;12.00;5.87;;;;;-0.50;96359.00;;;;8441503;28;20284;-74
2022/03/13 04:03:34;;;;;;;11.53;5.20;;;;;-0.50;96360.00;;;;8409432;28;20226;-75
2022/03/13 04:07:37;;;;;;;12.00;5.87;;;;;-0.50;96361.00;;;;8417660;28;20253;-74
2022/03/13 04:11:41;;;;;;;13.10;5.80;;;;;-0.50;96360.00;;;;8422123;28;20235;-76
2022/03/13 04:15:44;;;;;;;14.83;6.33;;;;;-0.50;96353.00;;;;8426978;28;20253;-76
2022/03/13 04:19:49;;;;;;;7.90;5.30;;;;;-0.50;96361.00;;;;8428959;27;20231;-75
2022/03/13 04:23:53;;;;;;;12.37;6.37;;;;;-0.50;96363.00;;;;8439757;27;20749;-74
2022/03/13 04:27:57;;;;;;;11.57;4.80;;;;;-0.50;96358.00;;;;8428195;28;20438;-74
2022/03/13 04:32:05;;;;;;;14.93;6.27;;;;;-0.50;96356.00;;;;8443763;28;20230;-73
2022/03/13 04:36:14;;;;;;;14.50;5.93;;;;;-0.60;96356.00;;;;8440344;27;20253;-76
2022/03/13 04:40:17;;;;;;;10.23;5.03;;;;;-0.60;96353.00;;;;8428190;28;20222;-75
2022/03/13 04:44:21;;;;;;;10.23;4.77;;;;;-0.70;96362.00;;;;8404660;28;20259;-75
2022/03/13 04:48:24;;;;;;;10.87;5.07;;;;;-0.80;96361.00;;;;8427731;28;20252;-74
2022/03/13 04:52:28;;;;;;;11.27;5.87;;;;;-0.80;96358.00;;;;8422185;28;20273;-76
2022/03/13 04:56:32;;;;;;;7.60;4.13;;;;;-0.80;96358.00;;;;8440406;27;20621;-77
2022/03/13 05:00:37;;;;;;;14.13;6.27;;;;;-0.90;96354.00;;;;8425755;28;20227;-74
2022/03/13 05:04:43;;;;;;;14.00;6.20;;;;;-0.90;96352.00;;;;8421000;28;20238;-76
2022/03/13 05:08:49;;;;;;;13.70;5.53;;;;;-1.00;96361.00;;;;8428152;28;20231;-73
2022/03/13 05:12:52;;;;;;;8.40;4.57;;;;;-1.00;96376.00;;;;8418487;28;20221;-78
2022/03/13 05:16:55;;;;;;;10.90;5.83;;;;;-1.00;96385.00;;;;8433088;28;20951;-73
2022/03/13 05:20:59;;;;;;;8.87;5.00;;;;;-1.00;96377.00;;;;8422143;27;20300;-72
2022/03/13 05:25:04;;;;;;;16.70;6.10;;;;;-1.00;96392.00;;;;8416031;28;20290;-73
2022/03/13 05:29:08;;;;;;;11.90;6.10;;;;;-1.10;96395.00;;;;8440220;28;20226;-73
2022/03/13 05:33:11;;;;;;;13.17;5.50;;;;;-1.10;96396.00;;;;8432038;28;20223;-72
2022/03/13 05:37:14;;;;;;;17.90;6.00;;;;;-1.20;96405.00;;;;8441843;27;20235;-73
2022/03/13 05:41:22;;;;;;;14.17;6.73;;;;;-1.30;96395.00;;;;8415520;28;20606;-73
2022/03/13 05:45:27;;;;;;;14.40;5.40;;;;;-1.30;96402.00;;;;8404124;28;20269;-75
2022/03/13 05:49:30;;;;;;;14.77;4.77;;;;;-1.30;96399.00;;;;8421746;28;20238;-75
2022/03/13 05:53:33;;;;;;;10.63;4.73;;;;;-1.30;96397.00;;;;8446215;27;20902;-75
2022/03/13 05:57:38;;;;;;;12.47;5.27;;;;;-1.20;96397.00;;;;8415775;28;20319;-75
2022/03/13 06:01:42;;;;;;;6.73;4.47;;;;;-1.20;96400.00;;;;8416832;28;20280;-75
2022/03/13 06:05:46;;;;;;;8.07;5.40;;;;;-1.10;96407.00;;;;8408859;28;20279;-74
2022/03/13 06:09:49;;;;;;;11.13;4.97;;;;;-1.10;96417.00;;;;8417615;28;20223;-73
2022/03/13 06:13:53;;;;;;;10.90;5.37;;;;;-1.00;96411.00;;;;8435473;27;20766;-71
2022/03/13 06:17:58;;;;;;;9.73;4.97;;;;;-0.90;96419.00;;;;8430518;27;20225;-74
2022/03/13 06:22:01;;;;;;;10.20;5.00;;;;;-0.80;96413.00;;;;8431385;27;20230;-72
2022/03/13 06:26:05;;;;;;;13.80;5.43;;;;;-0.70;96421.00;;;;8417131;28;20630;-76
2022/03/13 06:30:13;;;;;;;9.37;4.43;;;;;-0.60;96416.00;;;;8417055;28;20222;-74
2022/03/13 06:34:16;;;;;;;8.80;4.87;;;;;-0.50;96435.00;;;;8422662;27;20226;-74
2022/03/13 06:38:19;;;;;;;8.77;4.67;;;;;-0.40;96433.00;;;;8445493;27;20244;-73
2022/03/13 06:42:23;;;;;;;12.47;5.67;;;;;-0.30;96435.00;;;;8438336;28;20229;-74
2022/03/13 06:46:27;;;;;;;9.47;5.07;;;;;-0.30;96441.00;;;;8399032;28;20227;-75
2022/03/13 06:50:30;;;;;;;9.93;4.77;;;;;-0.20;96441.00;;;;8408260;28;20258;-73
2022/03/13 06:54:34;;;;;;;8.47;4.93;;;;;-0.10;96448.00;;;;8413636;28;20691;-75
2022/03/13 06:58:39;;;;;;;13.63;5.47;;;;;0.00;96431.00;;;;8411136;28;20245;-77
2022/03/13 07:02:44;;;;;;;11.07;5.03;;;;;0.10;96450.00;;;;8414931;28;20637;-74
2022/03/13 07:06:47;;;;;;;11.93;5.83;;;;;0.20;96439.00;;;;8410924;28;20234;-75
2022/03/13 07:10:50;;;;;;;11.00;5.70;;;;;0.30;96451.00;;;;8407312;28;20725;-75
2022/03/13 07:14:57;;;;;;;8.33;4.73;;;;;0.40;96447.00;;;;8413567;28;20390;-75
2022/03/13 07:19:02;;;;;;;9.37;4.97;;;;;0.50;96447.00;;;;8412261;28;20576;-75
2022/03/13 07:23:05;;;;;;;10.83;5.17;;;;;0.60;96444.00;;;;8383412;28;20732;-76
2022/03/13 07:27:08;;;;;;;8.37;4.37;;;;;0.70;96448.00;;;;8384074;28;20638;-76
2022/03/13 07:31:11;;;;;;;13.00;5.07;;;;;0.80;96446.00;;;;8407041;28;20314;-74
2022/03/13 07:35:17;;;;;;;12.37;5.60;;;;;0.90;96450.00;;;;8392390;28;20254;-73
2022/03/13 07:39:30;;;;;;;14.13;6.20;;;;;1.00;96448.00;;;;8400883;28;20229;-73
2022/03/13 07:43:34;;;;;;;9.20;5.17;;;;;1.20;96443.00;;;;8406171;28;20299;-76
2022/03/13 07:47:37;;;;;;;12.47;5.80;;;;;1.20;96445.00;;;;8381144;28;37381;-77
2022/03/13 07:51:43;;;;;;;11.00;5.93;;;;;1.40;96453.00;;;;8375885;28;20224;-78
2022/03/13 07:55:47;;;;;;;13.13;6.50;;;;;1.50;96447.00;;;;8346796;28;20231;-73
2022/03/13 07:59:54;;;;;;;16.77;5.93;;;;;1.60;96434.00;;;;8359380;28;20731;-76
2022/03/13 08:03:57;;;;;;;12.40;5.60;;;;;1.70;96449.00;;;;8365602;28;20235;-79
2022/03/13 08:08:02;;;;;;;12.63;5.90;;;;;1.80;96452.00;;;;8328837;28;20231;-78
2022/03/13 08:12:06;;;;;;;13.47;6.00;;;;;1.90;96451.00;;;;8346184;28;20998;-80
2022/03/13 08:16:10;;;;;;;13.03;6.13;;;;;2.20;96448.00;;;;8361575;28;20277;-76
2022/03/13 08:20:14;;;;;;;10.60;5.43;;;;;2.40;96443.00;;;;8363974;28;20717;-83
2022/03/13 08:24:20;;;;;;;12.33;6.23;;;;;2.50;96450.00;;;;8359790;28;20224;-78
2022/03/13 08:28:25;;;;;;;11.57;6.10;;;;;2.90;96449.00;;;;8322031;28;20307;-71
2022/03/13 08:32:32;;;;;;;12.00;6.20;;;;;3.00;96454.00;;;;8375116;28;20934;-74
2022/03/13 08:36:37;;;;;;;22.83;8.10;;;;;3.30;96455.00;;;;8332832;28;20766;-74
2022/03/13 08:40:42;;;;;;;9.87;5.43;;;;;3.70;96461.00;;;;8357427;28;20228;-69
2022/03/13 08:44:45;;;;;;;14.67;6.53;;;;;4.00;96461.00;;;;8324587;28;20225;-69
2022/03/13 08:48:48;;;;;;;9.03;5.37;;;;;4.30;96466.00;;;;8373241;28;20224;-68
2022/03/13 08:52:51;;;;;;;10.37;5.80;;;;;4.60;96457.00;;;;8369323;28;20223;-69
2022/03/13 08:57:02;;;;;;;11.70;6.33;;;;;4.90;96468.00;;;;8367461;28;20949;-69
2022/03/13 09:01:05;;;;;;;9.70;5.23;;;;;5.10;96462.00;;;;8377014;28;20238;-70
2022/03/13 09:05:08;;;;;;;9.47;5.53;;;;;5.30;96457.00;;;;8384035;28;20688;-71
2022/03/13 09:09:12;;;;;;;11.50;5.87;;;;;5.50;96454.00;;;;8383189;28;20311;-71
2022/03/13 09:13:16;;;;;;;9.73;5.47;;;;;5.90;96454.00;;;;8364350;28;20230;-70
2022/03/13 09:17:19;;;;;;;11.90;6.03;;;;;6.30;96456.00;;;;8380879;28;20357;-70
2022/03/13 09:21:23;;;;;;;11.23;5.63;;;;;6.70;96452.00;;;;8381170;28;20233;-71
2022/03/13 09:25:26;;;;;;;10.40;5.47;;;;;7.00;96452.00;;;;8375909;28;20257;-68
2022/03/13 09:29:31;;;;;;;11.40;5.57;;;;;7.50;96452.00;;;;8373142;28;20288;-70
2022/03/13 09:33:34;;;;;;;10.07;5.57;;;;;8.10;96445.00;;;;8381862;28;20235;-70
2022/03/13 09:37:38;;;;;;;9.67;5.10;;;;;8.40;96450.00;;;;8362807;28;20230;-71
2022/03/13 09:41:50;;;;;;;8.10;5.47;;;;;8.70;96448.00;;;;8365669;28;20281;-73
2022/03/13 09:45:54;;;;;;;10.97;5.40;;;;;9.20;96451.00;;;;8380449;28;20413;-74
2022/03/13 09:49:57;;;;;;;12.57;5.40;;;;;9.60;96454.00;;;;8382752;28;20261;-73
2022/03/13 09:54:02;;;;;;;9.70;5.20;;;;;9.80;96459.00;;;;8374174;28;20253;-75
2022/03/13 09:58:08;;;;;;;7.80;4.93;;;;;9.90;96451.00;;;;8377683;28;20373;-75
2022/03/13 10:02:13;;;;;;;9.03;5.10;;;;;10.40;96451.00;;;;8369275;28;20237;-74
2022/03/13 10:06:16;;;;;;;7.70;4.77;;;;;10.80;96451.00;;;;8373916;28;20323;-76
2022/03/13 10:10:19;;;;;;;9.37;4.70;;;;;11.50;96453.00;;;;8378186;28;20261;-80
2022/03/13 10:14:22;;;;;;;6.83;4.67;;;;;12.10;96448.00;;;;8382324;28;20226;-73
2022/03/13 10:18:27;;;;;;;10.63;5.07;;;;;12.80;96443.00;;;;8376036;28;20236;-76
2022/03/13 10:22:32;;;;;;;9.17;5.10;;;;;13.10;96443.00;;;;8382264;28;20276;-72
2022/03/13 10:26:35;;;;;;;7.33;4.63;;;;;13.10;96446.00;;;;8380366;28;20265;-73
2022/03/13 10:30:38;;;;;;;10.10;4.60;;;;;13.10;96444.00;;;;8365575;28;20290;-74
2022/03/13 10:34:54;;;;;;;7.47;4.47;;;;;13.20;96432.00;;;;8379273;28;20232;-72
2022/03/13 10:38:57;;;;;;;8.50;5.20;;;;;12.90;96430.00;;;;8365051;28;21038;-70
2022/03/13 10:43:03;;;;;;;8.83;4.87;;;;;12.60;96438.00;;;;8380000;28;20251;-71
2022/03/13 10:47:08;;;;;;;5.53;4.38;;;;;12.40;96423.00;;;;8379564;28;20672;-72
2022/03/13 10:51:14;;;;;;;8.32;4.50;;;;;12.10;96422.00;;;;8382398;28;20311;-72
2022/03/13 10:55:20;;;;;;;7.40;4.75;;;;;12.30;96420.00;;;;8381207;28;20216;-74
2022/03/13 10:59:23;;;;;;;8.20;4.80;;;;;12.30;96419.00;;;;8379680;28;20386;-73
2022/03/13 11:03:27;;;;;;;7.17;5.10;;;;;12.30;96419.00;;;;8368776;28;20319;-73
2022/03/13 11:07:31;;;;;;;10.10;4.80;;;;;12.40;96409.00;;;;8375908;28;20770;-76
2022/03/13 11:11:34;;;;;;;7.17;4.63;;;;;12.30;96414.00;;;;8364746;28;20243;-75
2022/03/13 11:15:38;;;;;;;8.57;5.50;;;;;12.40;96407.00;;;;8375192;28;20280;-76
2022/03/13 11:19:41;;;;;;;9.07;4.50;;;;;12.70;96405.00;;;;8374344;28;20228;-77
2022/03/13 11:23:46;;;;;;;10.10;6.00;;;;;12.60;96405.00;;;;8381665;28;20641;-76
2022/03/13 11:27:49;;;;;;;6.53;4.95;;;;;12.60;96398.00;;;;8377151;28;20925;-77
2022/03/13 11:31:52;;;;;;;11.27;5.47;;;;;12.60;96404.00;;;;8377241;28;20232;-76
2022/03/13 11:36:28;;;;;;;12.90;5.28;;;;;12.50;96397.00;;;;8373572;28;20764;-76
2022/03/13 11:40:35;;;;;;;7.55;5.45;;;;;12.80;96395.00;;;;8377661;28;20232;-74
2022/03/13 11:44:41;;;;;;;8.57;5.28;;;;;12.90;96391.00;;;;8380878;28;20289;-76
2022/03/13 11:48:45;;;;;;;7.18;5.05;;;;;13.20;96397.00;;;;8377148;28;20232;-81
2022/03/13 11:52:48;;;;;;;9.32;5.85;;;;;13.20;96385.00;;;;8377351;28;20277;-78
2022/03/13 11:56:52;;;;;;;8.48;4.82;;;;;13.30;96389.00;;;;8374504;28;20226;-78
2022/03/13 12:01:06;;;;;;;6.97;4.80;;;;;12.90;96391.00;;;;8377211;28;20224;-78
2022/03/13 12:05:28;;;;;;;7.18;4.65;;;;;12.80;96386.00;;;;8340789;28;20311;-81
2022/03/13 12:09:40;;;;;;;7.07;5.00;;;;;12.60;96384.00;;;;8376563;28;20310;-76
2022/03/13 12:13:49;;;;;;;7.25;5.70;;;;;12.50;96370.00;;;;8378507;28;20592;-77
2022/03/13 12:17:53;;;;;;;6.55;4.70;;;;;12.40;96360.00;;;;8371835;28;20221;-77
2022/03/13 12:21:59;;;;;;;6.93;4.72;;;;;12.40;96364.00;;;;8377069;28;20637;-74
2022/03/13 12:26:16;;;;;;;9.20;4.95;;;;;12.30;96352.00;;;;8378853;28;20227;-74
2022/03/13 12:30:26;;;;;;;7.97;4.90;;;;;12.40;96350.00;;;;8377483;28;20230;-73
2022/03/13 12:34:33;;;;;;;5.95;4.70;;;;;12.30;96340.00;;;;8374575;28;20262;-75
2022/03/13 12:38:38;;;;;;;8.43;5.10;;;;;12.40;96341.00;;;;8375219;28;20270;-74
2022/03/13 12:42:41;;;;;;;7.57;4.90;;;;;12.30;96345.00;;;;8375981;28;20305;-74
2022/03/13 12:46:50;;;;;;;7.88;4.75;;;;;12.40;96332.00;;;;8377415;28;20289;-72
2022/03/13 12:50:57;;;;;;;6.05;4.47;;;;;12.50;96327.00;;;;8370863;28;20282;-70
2022/03/13 12:55:01;;;;;;;6.70;3.83;;;;;12.70;96328.00;;;;8370196;28;20342;-69
2022/03/13 12:59:04;;;;;;;7.25;4.35;;;;;12.80;96334.00;;;;8372035;28;20219;-71
2022/03/13 13:03:09;;;;;;;7.38;4.80;;;;;12.90;96315.00;;;;8368708;28;20231;-71
2022/03/13 13:07:13;;;;;;;7.50;4.35;;;;;13.00;96317.00;;;;8371014;28;20216;-74
2022/03/13 13:11:29;;;;;;;7.97;4.90;;;;;13.00;96314.00;;;;8373746;28;20266;-72
2022/03/13 13:15:34;;;;;;;6.07;4.80;;;;;13.10;96319.00;;;;8375480;28;20255;-72
2022/03/13 13:19:39;;;;;;;5.45;4.38;;;;;13.00;96315.00;;;;8380454;28;20331;-76
2022/03/13 13:23:42;;;;;;;6.07;4.60;;;;;13.10;96311.00;;;;8376839;28;20233;-70
2022/03/13 13:27:50;;;;;;;5.90;4.43;;;;;13.20;96298.00;;;;8370009;28;20234;-73
2022/03/13 13:31:53;;;;;;;9.10;4.40;;;;;13.40;96303.00;;;;8371960;28;20286;-72
2022/03/13 13:36:00;;;;;;;7.60;5.20;;;;;13.40;96305.00;;;;8372262;28;20332;-73
2022/03/13 13:40:07;;;;;;;5.45;4.47;;;;;13.40;96304.00;;;;8377473;28;20253;-72
2022/03/13 13:44:10;;;;;;;6.88;4.82;;;;;13.50;96304.00;;;;8366659;28;20224;-72
2022/03/13 13:48:27;;;;;;;7.22;4.57;;;;;13.70;96299.00;;;;8379450;28;20619;-71
2022/03/13 13:52:33;;;;;;;6.10;4.82;;;;;13.80;96304.00;;;;8378616;28;20229;-72
2022/03/13 13:56:38;;;;;;;6.82;4.90;;;;;13.90;96301.00;;;;8376836;28;20228;-72
2022/03/13 14:00:42;;;;;;;7.25;4.82;;;;;14.00;96296.00;;;;8381188;28;20241;-73
2022/03/13 14:04:50;;;;;;;6.90;4.53;;;;;14.10;96296.00;;;;8378509;28;20706;-72
2022/03/13 14:08:55;;;;;;;6.38;4.57;;;;;14.20;96304.00;;;;8382082;28;20680;-73
2022/03/13 14:12:58;;;;;;;6.03;4.53;;;;;14.20;96293.00;;;;8382540;28;20230;-72
2022/03/13 14:17:01;;;;;;;6.72;4.63;;;;;14.40;96299.00;;;;8380811;28;20235;-70
2022/03/13 14:21:04;;;;;;;7.05;4.70;;;;;14.60;96293.00;;;;8378264;28;20229;-76
2022/03/13 14:25:10;;;;;;;4.50;3.58;;;;;14.80;96293.00;;;;8381320;28;20227;-71
2022/03/13 14:29:13;;;;;;;5.65;3.88;;;;;15.00;96292.00;;;;8390837;28;20725;-72
2022/03/13 14:33:16;;;;;;;8.60;4.65;;;;;15.10;96286.00;;;;8363707;28;20294;-71
2022/03/13 14:37:19;;;;;;;6.68;4.50;;;;;15.20;96284.00;;;;8379978;28;20279;-71
2022/03/13 14:41:43;;;;;;;6.20;4.70;;;;;15.30;96286.00;;;;8370023;28;20233;-71
2022/03/13 14:45:48;;;;;;;10.75;5.07;;;;;15.30;96279.00;;;;8383243;28;20222;-71
2022/03/13 14:49:51;;;;;;;5.85;4.47;;;;;15.40;96284.00;;;;8383498;28;20321;-71
2022/03/13 14:53:54;;;;;;;7.50;4.57;;;;;15.40;96289.00;;;;8374848;28;20596;-73
2022/03/13 14:57:58;;;;;;;9.15;5.25;;;;;15.50;96288.00;;;;8367339;28;20226;-72
2022/03/13 15:02:01;;;;;;;6.45;4.55;;;;;15.50;96295.00;;;;8366655;28;20230;-71
2022/03/13 15:06:04;;;;;;;5.30;4.18;;;;;15.50;96294.00;;;;8375316;28;20657;-71
2022/03/13 15:10:08;;;;;;;6.22;4.43;;;;;15.50;96284.00;;;;8378544;28;20660;-72
2022/03/13 15:14:14;;;;;;;5.32;4.13;;;;;15.60;96282.00;;;;8381305;28;20293;-71
2022/03/13 15:18:17;;;;;;;9.57;4.78;;;;;15.60;96291.00;;;;8376013;28;20224;-71
2022/03/13 15:22:20;;;;;;;7.72;4.93;;;;;15.60;96286.00;;;;8383083;28;20235;-69
2022/03/13 15:26:24;;;;;;;6.47;4.60;;;;;15.60;96287.00;;;;8382067;28;20250;-71
2022/03/13 15:30:30;;;;;;;10.48;5.03;;;;;15.60;96289.00;;;;8370535;28;20213;-72
2022/03/13 15:34:33;;;;;;;6.90;4.70;;;;;15.50;96285.00;;;;8371217;28;20804;-71
2022/03/13 15:38:36;;;;;;;5.35;4.30;;;;;15.30;96289.00;;;;8362744;28;20802;-71
2022/03/13 15:42:40;;;;;;;5.15;4.03;;;;;15.20;96284.00;;;;8367790;28;20242;-72
2022/03/13 15:46:45;;;;;;;10.23;5.03;;;;;15.10;96282.00;;;;8365594;28;20274;-71
2022/03/13 15:50:48;;;;;;;7.75;5.00;;;;;15.10;96285.00;;;;8369632;28;20223;-71
2022/03/13 15:54:51;;;;;;;8.10;5.00;;;;;15.00;96283.00;;;;8369912;28;21043;-71
2022/03/13 15:58:56;;;;;;;11.02;5.90;;;;;14.90;96283.00;;;;8371627;28;20228;-70
2022/03/13 16:03:01;;;;;;;8.07;5.70;;;;;14.90;96283.00;;;;8375992;28;20239;-69
2022/03/13 16:07:05;;;;;;;9.98;6.30;;;;;14.70;96287.00;;;;8383159;28;20237;-69
2022/03/13 16:11:08;;;;;;;9.07;5.95;;;;;14.50;96293.00;;;;8374121;28;20234;-69
2022/03/13 16:15:13;;;;;;;11.32;6.43;;;;;14.10;96290.00;;;;8377720;28;20679;-70
2022/03/13 16:19:17;;;;;;;10.48;6.22;;;;;13.80;96292.00;;;;8374528;28;20310;-70
2022/03/13 16:23:20;;;;;;;14.00;6.72;;;;;13.60;96290.00;;;;8380069;28;20229;-72
2022/03/13 16:27:23;;;;;;;11.88;6.70;;;;;13.30;96301.00;;;;8370404;28;20283;-71
2022/03/13 16:31:27;;;;;;;12.82;7.38;;;;;13.00;96308.00;;;;8374884;28;20225;-71
2022/03/13 16:35:31;;;;;;;10.32;6.80;;;;;12.70;96299.00;;;;8367096;28;20236;-71
2022/03/13 16:39:38;;;;;;;14.18;7.72;;;;;12.50;96307.00;;;;8368455;28;20226;-70
2022/03/13 16:43:41;;;;;;;8.60;6.57;;;;;12.30;96316.00;;;;8371838;28;20927;-71
2022/03/13 16:47:44;;;;;;;12.68;7.07;;;;;12.10;96311.00;;;;8371677;28;20278;-71
2022/03/13 16:51:48;;;;;;;12.63;6.93;;;;;11.80;96300.00;;;;8372998;28;20249;-71
2022/03/13 16:55:51;;;;;;;12.98;7.28;;;;;11.60;96300.00;;;;8374122;28;20221;-71
2022/03/13 16:59:54;;;;;;;14.18;7.32;;;;;11.40;96295.00;;;;8373767;28;20244;-71
2022/03/13 17:03:58;;;;;;;11.50;6.45;;;;;11.10;96308.00;;;;8372030;28;20243;-73
2022/03/13 17:08:02;;;;;;;14.60;7.97;;;;;11.00;96310.00;;;;8367879;28;20290;-74
2022/03/13 17:12:06;;;;;;;13.57;7.35;;;;;10.70;96303.00;;;;8372217;28;20664;-71
2022/03/13 17:16:10;;;;;;;17.20;8.70;;;;;10.50;96311.00;;;;8377927;28;20220;-70
2022/03/13 17:20:19;;;;;;;18.20;9.00;;;;;10.40;96301.00;;;;8374784;28;20236;-71
2022/03/13 17:24:25;;;;;;;17.50;8.37;;;;;10.20;96296.00;;;;8381496;28;20228;-71
2022/03/13 17:28:28;;;;;;;12.00;7.00;;;;;10.10;96304.00;;;;8377799;28;20258;-68
2022/03/13 17:32:31;;;;;;;13.97;8.27;;;;;9.90;96314.00;;;;8380038;28;20217;-68
2022/03/13 17:36:36;;;;;;;14.73;7.60;;;;;9.80;96313.00;;;;8379041;28;20231;-69
2022/03/13 17:40:41;;;;;;;16.13;8.93;;;;;9.60;96312.00;;;;8378779;28;20265;-68
2022/03/13 17:44:44;;;;;;;14.60;8.10;;;;;9.40;96312.00;;;;8372790;28;20277;-69
2022/03/13 17:48:47;;;;;;;18.73;8.67;;;;;9.20;96321.00;;;;8366953;28;20277;-70
2022/03/13 17:52:50;;;;;;;14.57;7.13;;;;;9.10;96315.00;;;;8377386;28;20235;-69
2022/03/13 17:56:56;;;;;;;15.77;8.80;;;;;8.90;96315.00;;;;8372795;28;20231;-68
2022/03/13 18:00:59;;;;;;;17.00;8.37;;;;;8.70;96320.00;;;;8366670;28;20569;-69
2022/03/13 18:05:03;;;;;;;18.30;8.60;;;;;8.60;96317.00;;;;8368019;28;20224;-69
2022/03/13 18:09:06;;;;;;;16.83;9.30;;;;;8.40;96318.00;;;;8374919;28;20734;-68
2022/03/13 18:13:11;;;;;;;16.67;8.73;;;;;8.30;96316.00;;;;8377399;28;20231;-69
2022/03/13 18:17:14;;;;;;;16.03;8.10;;;;;8.10;96319.00;;;;8373845;28;20538;-68
2022/03/13 18:21:17;;;;;;;17.87;9.57;;;;;8.00;96315.00;;;;8373554;28;20224;-68
2022/03/13 18:25:28;;;;;;;16.23;8.23;;;;;7.90;96321.00;;;;8370642;28;20262;-68
2022/03/13 18:29:33;;;;;;;23.03;10.43;;;;;7.80;96317.00;;;;8377808;28;20239;-68
2022/03/13 18:33:36;;;;;;;20.07;9.37;;;;;7.70;96322.00;;;;8374299;28;20239;-69
2022/03/13 18:37:39;;;;;;;14.27;8.50;;;;;7.70;96320.00;;;;8377660;28;20216;-69
2022/03/13 18:41:42;;;;;;;16.10;8.73;;;;;7.70;96325.00;;;;8377409;28;20663;-68
2022/03/13 18:45:47;;;;;;;19.20;9.77;;;;;7.70;96308.00;;;;8375675;28;20293;-68
2022/03/13 18:49:50;;;;;;;19.60;11.07;;;;;7.60;96313.00;;;;8376663;28;20293;-69
2022/03/13 18:53:53;;;;;;;14.80;8.80;;;;;7.50;96305.00;;;;8372825;28;20345;-68
2022/03/13 18:57:59;;;;;;;15.33;9.10;;;;;7.50;96313.00;;;;8374814;28;20279;-69
2022/03/13 19:02:03;;;;;;;16.60;10.00;;;;;7.40;96315.00;;;;8377307;28;20837;-70
2022/03/13 19:06:09;;;;;;;17.77;8.90;;;;;7.20;96308.00;;;;8370629;28;20223;-69
2022/03/13 19:10:13;;;;;;;18.70;8.57;;;;;7.20;96311.00;;;;8374796;28;20277;-69
2022/03/13 19:14:17;;;;;;;18.57;9.03;;;;;7.20;96324.00;;;;8372833;28;20290;-69
2022/03/13 19:18:21;;;;;;;18.57;10.07;;;;;7.20;96316.00;;;;8370195;28;20284;-70
2022/03/13 19:22:29;;;;;;;17.00;8.43;;;;;7.20;96316.00;;;;8372212;28;20235;-69
2022/03/13 19:26:33;;;;;;;20.43;9.37;;;;;7.10;96308.00;;;;8372512;28;20296;-69
2022/03/13 19:30:36;;;;;;;16.33;8.73;;;;;7.10;96307.00;;;;8372350;28;20288;-68
2022/03/13 19:34:42;;;;;;;21.43;9.40;;;;;6.90;96315.00;;;;8370809;28;20585;-69
2022/03/13 19:38:45;;;;;;;19.70;9.43;;;;;6.70;96322.00;;;;8372573;28;20226;-70
2022/03/13 19:42:48;;;;;;;24.67;11.77;;;;;6.60;96326.00;;;;8376217;28;20237;-69
2022/03/13 19:46:51;;;;;;;28.73;11.73;;;;;6.40;96321.00;;;;8370989;28;20899;-69
2022/03/13 19:50:56;;;;;;;19.67;9.60;;;;;6.40;96320.00;;;;8374807;28;20249;-72
2022/03/13 19:55:00;;;;;;;17.33;9.03;;;;;6.40;96324.00;;;;8370503;28;20992;-72
2022/03/13 19:59:06;;;;;;;19.60;9.60;;;;;6.40;96323.00;;;;8375049;28;20229;-70
2022/03/13 20:03:30;;;;;;;20.53;9.43;;;;;6.30;96323.00;;;;8375564;28;20224;-72
2022/03/13 20:07:36;;;;;;;15.10;8.47;;;;;6.30;96336.00;;;;8372126;28;20226;-69
2022/03/13 20:11:41;;;;;;;18.27;9.50;;;;;6.20;96331.00;;;;8372277;28;20226;-70
2022/03/13 20:15:44;;;;;;;22.20;8.73;;;;;6.20;96341.00;;;;8377299;28;20242;-70
2022/03/13 20:19:47;;;;;;;21.87;10.70;;;;;6.10;96353.00;;;;8370048;28;20222;-71
2022/03/13 20:23:53;;;;;;;20.63;9.80;;;;;6.20;96346.00;;;;8377158;28;20756;-73